sensor_id;sensor_type;location;lat;lon;timestamp;P1;durP1;ratioP1;P2;durP2;ratioP2
579;SDS011;276;48.392;9.950;2023-02-15T00:01:32;20.10;;;16.17;;
579;SDS011;276;48.392;9.950;2023-02-15T00:03:58;18.10;;;16.37;;
579;SDS011;276;48.392;9.950;2023-02-15T00:06:26;21.70;;;17.13;;
579;SDS011;276;48.392;9.950;2023-02-15T00:08:55;21.93;;;16.20;;
579;SDS011;276;48.392;9.950;2023-02-15T00:11:25;18.60;;;16.80;;
579;SDS011;276;48.392;9.950;2023-02-15T00:16:51;19.30;;;17.30;;
579;SDS011;276;48.392;9.950;2023-02-15T00:19:24;22.33;;;18.77;;
579;SDS011;276;48.392;9.950;2023-02-15T00:21:52;19.17;;;17.07;;
579;SDS011;276;48.392;9.950;2023-02-15T00:24:18;22.70;;;18.53;;
579;SDS011;276;48.392;9.950;2023-02-15T00:26:45;21.13;;;18.43;;
579;SDS011;276;48.392;9.950;2023-02-15T00:29:17;21.67;;;19.37;;
579;SDS011;276;48.392;9.950;2023-02-15T00:31:45;19.90;;;17.17;;
579;SDS011;276;48.392;9.950;2023-02-15T00:34:12;23.20;;;19.37;;
579;SDS011;276;48.392;9.950;2023-02-15T00:36:45;20.60;;;18.30;;
579;SDS011;276;48.392;9.950;2023-02-15T00:39:11;21.73;;;17.90;;
579;SDS011;276;48.392;9.950;2023-02-15T00:41:40;20.53;;;18.50;;
579;SDS011;276;48.392;9.950;2023-02-15T00:44:08;21.53;;;17.90;;
579;SDS011;276;48.392;9.950;2023-02-15T00:46:34;18.70;;;16.43;;
579;SDS011;276;48.392;9.950;2023-02-15T00:49:04;19.63;;;17.57;;
579;SDS011;276;48.392;9.950;2023-02-15T00:51:32;20.07;;;17.97;;
579;SDS011;276;48.392;9.950;2023-02-15T00:53:58;20.77;;;18.60;;
579;SDS011;276;48.392;9.950;2023-02-15T00:56:24;19.17;;;17.10;;
579;SDS011;276;48.392;9.950;2023-02-15T00:58:53;21.50;;;17.27;;
579;SDS011;276;48.392;9.950;2023-02-15T01:01:19;18.63;;;16.77;;
579;SDS011;276;48.392;9.950;2023-02-15T01:03:45;17.40;;;15.60;;
579;SDS011;276;48.392;9.950;2023-02-15T01:06:14;18.80;;;16.80;;
579;SDS011;276;48.392;9.950;2023-02-15T01:08:41;22.60;;;18.23;;
579;SDS011;276;48.392;9.950;2023-02-15T01:11:12;17.57;;;14.90;;
579;SDS011;276;48.392;9.950;2023-02-15T01:13:40;22.13;;;19.73;;
579;SDS011;276;48.392;9.950;2023-02-15T01:16:08;18.60;;;16.73;;
579;SDS011;276;48.392;9.950;2023-02-15T01:18:34;18.23;;;16.33;;
579;SDS011;276;48.392;9.950;2023-02-15T01:21:07;22.30;;;19.67;;
579;SDS011;276;48.392;9.950;2023-02-15T01:23:38;19.60;;;17.20;;
579;SDS011;276;48.392;9.950;2023-02-15T01:26:05;20.80;;;17.30;;
579;SDS011;276;48.392;9.950;2023-02-15T01:28:31;24.33;;;19.00;;
579;SDS011;276;48.392;9.950;2023-02-15T01:30:57;27.53;;;21.80;;
579;SDS011;276;48.392;9.950;2023-02-15T01:33:31;24.97;;;19.70;;
579;SDS011;276;48.392;9.950;2023-02-15T01:35:57;31.80;;;21.90;;
579;SDS011;276;48.392;9.950;2023-02-15T01:38:28;33.13;;;22.70;;
579;SDS011;276;48.392;9.950;2023-02-15T01:40:54;27.17;;;21.80;;
579;SDS011;276;48.392;9.950;2023-02-15T01:43:44;26.60;;;20.43;;
579;SDS011;276;48.392;9.950;2023-02-15T01:46:12;29.33;;;20.53;;
579;SDS011;276;48.392;9.950;2023-02-15T01:48:47;28.57;;;22.27;;
579;SDS011;276;48.392;9.950;2023-02-15T01:51:21;39.03;;;22.80;;
579;SDS011;276;48.392;9.950;2023-02-15T01:53:57;32.00;;;22.37;;
579;SDS011;276;48.392;9.950;2023-02-15T01:56:28;33.30;;;21.93;;
579;SDS011;276;48.392;9.950;2023-02-15T01:59:00;35.63;;;22.50;;
579;SDS011;276;48.392;9.950;2023-02-15T02:01:31;29.90;;;20.57;;
579;SDS011;276;48.392;9.950;2023-02-15T02:06:34;33.13;;;23.47;;
579;SDS011;276;48.392;9.950;2023-02-15T02:09:05;39.77;;;25.23;;
579;SDS011;276;48.392;9.950;2023-02-15T02:11:33;35.80;;;24.27;;
579;SDS011;276;48.392;9.950;2023-02-15T02:13:59;38.80;;;25.50;;
579;SDS011;276;48.392;9.950;2023-02-15T02:19:21;30.80;;;24.43;;
579;SDS011;276;48.392;9.950;2023-02-15T02:25:32;29.80;;;20.47;;
579;SDS011;276;48.392;9.950;2023-02-15T02:28:08;33.03;;;20.90;;
579;SDS011;276;48.392;9.950;2023-02-15T02:39:07;24.77;;;18.97;;
579;SDS011;276;48.392;9.950;2023-02-15T02:42:16;23.90;;;18.30;;
579;SDS011;276;48.392;9.950;2023-02-15T02:44:54;22.73;;;17.90;;
579;SDS011;276;48.392;9.950;2023-02-15T02:47:37;21.27;;;15.67;;
579;SDS011;276;48.392;9.950;2023-02-15T02:50:14;19.57;;;17.37;;
579;SDS011;276;48.392;9.950;2023-02-15T02:52:45;22.90;;;18.03;;
579;SDS011;276;48.392;9.950;2023-02-15T03:00:57;28.97;;;21.17;;
579;SDS011;276;48.392;9.950;2023-02-15T03:06:17;25.30;;;19.30;;
579;SDS011;276;48.392;9.950;2023-02-15T03:08:50;18.83;;;16.47;;
579;SDS011;276;48.392;9.950;2023-02-15T03:11:26;21.53;;;16.87;;
579;SDS011;276;48.392;9.950;2023-02-15T03:13:51;25.00;;;16.93;;
579;SDS011;276;48.392;9.950;2023-02-15T03:16:17;24.60;;;17.57;;
579;SDS011;276;48.392;9.950;2023-02-15T03:19:04;25.60;;;18.20;;
579;SDS011;276;48.392;9.950;2023-02-15T03:21:32;22.50;;;18.07;;
579;SDS011;276;48.392;9.950;2023-02-15T03:24:04;23.57;;;17.97;;
579;SDS011;276;48.392;9.950;2023-02-15T03:26:38;21.60;;;16.23;;
579;SDS011;276;48.392;9.950;2023-02-15T03:29:07;24.27;;;16.30;;
579;SDS011;276;48.392;9.950;2023-02-15T03:31:36;21.07;;;18.27;;
579;SDS011;276;48.392;9.950;2023-02-15T03:34:09;20.63;;;16.37;;
579;SDS011;276;48.392;9.950;2023-02-15T03:41:40;16.87;;;14.63;;
579;SDS011;276;48.392;9.950;2023-02-15T03:44:42;16.57;;;14.97;;
579;SDS011;276;48.392;9.950;2023-02-15T03:47:30;17.23;;;14.07;;
579;SDS011;276;48.392;9.950;2023-02-15T03:52:55;14.87;;;12.20;;
579;SDS011;276;48.392;9.950;2023-02-15T03:55:23;14.40;;;13.10;;
579;SDS011;276;48.392;9.950;2023-02-15T03:57:49;13.97;;;12.37;;
579;SDS011;276;48.392;9.950;2023-02-15T04:00:35;14.27;;;12.77;;
579;SDS011;276;48.392;9.950;2023-02-15T04:03:35;13.90;;;12.57;;
579;SDS011;276;48.392;9.950;2023-02-15T04:06:13;15.70;;;12.53;;
579;SDS011;276;48.392;9.950;2023-02-15T04:08:41;13.03;;;11.83;;
579;SDS011;276;48.392;9.950;2023-02-15T04:11:27;12.60;;;11.43;;
579;SDS011;276;48.392;9.950;2023-02-15T04:13:53;13.23;;;11.93;;
579;SDS011;276;48.392;9.950;2023-02-15T04:16:28;13.10;;;11.90;;
579;SDS011;276;48.392;9.950;2023-02-15T04:18:56;11.43;;;10.33;;
579;SDS011;276;48.392;9.950;2023-02-15T04:21:40;13.80;;;12.50;;
579;SDS011;276;48.392;9.950;2023-02-15T04:24:26;13.00;;;10.97;;
579;SDS011;276;48.392;9.950;2023-02-15T04:27:10;12.33;;;11.00;;
579;SDS011;276;48.392;9.950;2023-02-15T04:29:36;13.07;;;11.80;;
579;SDS011;276;48.392;9.950;2023-02-15T04:32:01;12.33;;;11.23;;
579;SDS011;276;48.392;9.950;2023-02-15T04:34:27;12.63;;;11.53;;
579;SDS011;276;48.392;9.950;2023-02-15T04:36:55;12.93;;;11.60;;
579;SDS011;276;48.392;9.950;2023-02-15T04:39:20;10.97;;;9.87;;
579;SDS011;276;48.392;9.950;2023-02-15T04:41:46;11.83;;;10.63;;
579;SDS011;276;48.392;9.950;2023-02-15T04:44:12;10.87;;;9.93;;
579;SDS011;276;48.392;9.950;2023-02-15T04:46:38;10.70;;;9.60;;
579;SDS011;276;48.392;9.950;2023-02-15T04:49:07;11.37;;;10.20;;
579;SDS011;276;48.392;9.950;2023-02-15T04:51:33;11.90;;;10.80;;
579;SDS011;276;48.392;9.950;2023-02-15T04:54:01;11.53;;;10.50;;
579;SDS011;276;48.392;9.950;2023-02-15T04:56:26;11.47;;;10.40;;
579;SDS011;276;48.392;9.950;2023-02-15T04:58:54;13.17;;;11.07;;
579;SDS011;276;48.392;9.950;2023-02-15T05:01:22;11.97;;;10.87;;
579;SDS011;276;48.392;9.950;2023-02-15T05:03:48;12.87;;;11.60;;
579;SDS011;276;48.392;9.950;2023-02-15T05:06:14;12.50;;;11.30;;
579;SDS011;276;48.392;9.950;2023-02-15T05:08:39;11.10;;;10.10;;
579;SDS011;276;48.392;9.950;2023-02-15T05:11:05;11.07;;;10.07;;
579;SDS011;276;48.392;9.950;2023-02-15T05:13:33;12.30;;;11.30;;
579;SDS011;276;48.392;9.950;2023-02-15T05:15:58;14.47;;;13.03;;
579;SDS011;276;48.392;9.950;2023-02-15T05:18:24;15.00;;;12.27;;
579;SDS011;276;48.392;9.950;2023-02-15T05:20:50;13.27;;;11.93;;
579;SDS011;276;48.392;9.950;2023-02-15T05:23:17;13.97;;;12.70;;
579;SDS011;276;48.392;9.950;2023-02-15T05:25:49;12.87;;;11.77;;
579;SDS011;276;48.392;9.950;2023-02-15T05:28:35;12.23;;;11.17;;
579;SDS011;276;48.392;9.950;2023-02-15T05:33:34;12.63;;;11.33;;
579;SDS011;276;48.392;9.950;2023-02-15T05:36:00;11.83;;;10.63;;
579;SDS011;276;48.392;9.950;2023-02-15T05:38:28;12.40;;;10.80;;
579;SDS011;276;48.392;9.950;2023-02-15T05:40:54;12.77;;;11.47;;
579;SDS011;276;48.392;9.950;2023-02-15T05:43:23;12.47;;;11.37;;
579;SDS011;276;48.392;9.950;2023-02-15T05:45:52;11.50;;;10.50;;
579;SDS011;276;48.392;9.950;2023-02-15T05:48:20;11.70;;;10.70;;
579;SDS011;276;48.392;9.950;2023-02-15T05:50:46;10.97;;;10.00;;
579;SDS011;276;48.392;9.950;2023-02-15T05:53:25;11.10;;;10.10;;
579;SDS011;276;48.392;9.950;2023-02-15T05:55:51;12.03;;;11.03;;
579;SDS011;276;48.392;9.950;2023-02-15T05:58:17;11.33;;;10.40;;
579;SDS011;276;48.392;9.950;2023-02-15T06:00:42;11.80;;;10.70;;
579;SDS011;276;48.392;9.950;2023-02-15T06:03:08;10.93;;;10.03;;
579;SDS011;276;48.392;9.950;2023-02-15T06:05:36;11.27;;;10.23;;
579;SDS011;276;48.392;9.950;2023-02-15T06:08:01;11.40;;;10.50;;
579;SDS011;276;48.392;9.950;2023-02-15T06:10:29;13.27;;;11.97;;
579;SDS011;276;48.392;9.950;2023-02-15T06:12:55;12.03;;;10.93;;
579;SDS011;276;48.392;9.950;2023-02-15T06:15:20;12.10;;;11.10;;
579;SDS011;276;48.392;9.950;2023-02-15T06:17:46;11.10;;;10.07;;
579;SDS011;276;48.392;9.950;2023-02-15T06:20:12;12.87;;;11.67;;
579;SDS011;276;48.392;9.950;2023-02-15T06:22:37;11.33;;;10.40;;
579;SDS011;276;48.392;9.950;2023-02-15T06:25:05;11.60;;;10.40;;
579;SDS011;276;48.392;9.950;2023-02-15T06:27:34;12.30;;;11.17;;
579;SDS011;276;48.392;9.950;2023-02-15T06:30:04;11.00;;;10.00;;
579;SDS011;276;48.392;9.950;2023-02-15T06:32:32;13.60;;;12.30;;
579;SDS011;276;48.392;9.950;2023-02-15T06:34:57;11.70;;;10.70;;
579;SDS011;276;48.392;9.950;2023-02-15T06:37:23;13.67;;;11.63;;
579;SDS011;276;48.392;9.950;2023-02-15T06:39:48;13.17;;;11.73;;
579;SDS011;276;48.392;9.950;2023-02-15T06:42:17;13.13;;;11.77;;
579;SDS011;276;48.392;9.950;2023-02-15T06:44:45;14.97;;;13.37;;
579;SDS011;276;48.392;9.950;2023-02-15T06:47:11;16.30;;;14.60;;
579;SDS011;276;48.392;9.950;2023-02-15T06:49:39;16.10;;;14.50;;
579;SDS011;276;48.392;9.950;2023-02-15T06:52:06;17.10;;;15.30;;
579;SDS011;276;48.392;9.950;2023-02-15T06:54:32;19.37;;;16.67;;
579;SDS011;276;48.392;9.950;2023-02-15T06:57:02;22.87;;;19.70;;
579;SDS011;276;48.392;9.950;2023-02-15T06:59:30;25.20;;;19.57;;
579;SDS011;276;48.392;9.950;2023-02-15T07:01:56;22.60;;;19.53;;
579;SDS011;276;48.392;9.950;2023-02-15T07:04:21;24.10;;;20.57;;
579;SDS011;276;48.392;9.950;2023-02-15T07:06:47;22.67;;;20.33;;
579;SDS011;276;48.392;9.950;2023-02-15T07:09:12;25.70;;;19.93;;
579;SDS011;276;48.392;9.950;2023-02-15T07:11:38;26.40;;;20.37;;
579;SDS011;276;48.392;9.950;2023-02-15T07:14:27;24.03;;;20.10;;
579;SDS011;276;48.392;9.950;2023-02-15T07:16:55;28.00;;;20.23;;
579;SDS011;276;48.392;9.950;2023-02-15T07:19:25;30.37;;;21.10;;
579;SDS011;276;48.392;9.950;2023-02-15T07:21:51;29.47;;;21.20;;
579;SDS011;276;48.392;9.950;2023-02-15T07:24:17;25.10;;;20.93;;
579;SDS011;276;48.392;9.950;2023-02-15T07:26:47;26.93;;;21.17;;
579;SDS011;276;48.392;9.950;2023-02-15T07:29:15;24.93;;;20.37;;
579;SDS011;276;48.392;9.950;2023-02-15T07:31:43;33.53;;;19.70;;
579;SDS011;276;48.392;9.950;2023-02-15T07:34:10;28.47;;;20.73;;
579;SDS011;276;48.392;9.950;2023-02-15T07:36:36;26.63;;;20.60;;
579;SDS011;276;48.392;9.950;2023-02-15T07:39:01;29.43;;;21.33;;
579;SDS011;276;48.392;9.950;2023-02-15T07:41:27;25.77;;;21.23;;
579;SDS011;276;48.392;9.950;2023-02-15T07:43:56;25.20;;;20.57;;
579;SDS011;276;48.392;9.950;2023-02-15T07:46:21;23.37;;;19.10;;
579;SDS011;276;48.392;9.950;2023-02-15T07:48:47;23.00;;;20.20;;
579;SDS011;276;48.392;9.950;2023-02-15T07:51:13;24.03;;;18.90;;
579;SDS011;276;48.392;9.950;2023-02-15T07:53:43;20.97;;;17.70;;
579;SDS011;276;48.392;9.950;2023-02-15T07:56:12;19.10;;;16.50;;
579;SDS011;276;48.392;9.950;2023-02-15T07:58:41;20.00;;;17.93;;
579;SDS011;276;48.392;9.950;2023-02-15T08:01:18;20.20;;;17.97;;
579;SDS011;276;48.392;9.950;2023-02-15T08:03:45;23.30;;;18.90;;
579;SDS011;276;48.392;9.950;2023-02-15T08:06:10;23.80;;;18.57;;
579;SDS011;276;48.392;9.950;2023-02-15T08:08:38;24.90;;;20.83;;
579;SDS011;276;48.392;9.950;2023-02-15T08:14:02;23.37;;;20.43;;
579;SDS011;276;48.392;9.950;2023-02-15T08:21:44;22.00;;;18.53;;
579;SDS011;276;48.392;9.950;2023-02-15T08:24:12;25.50;;;19.37;;
579;SDS011;276;48.392;9.950;2023-02-15T08:26:41;22.77;;;19.70;;
579;SDS011;276;48.392;9.950;2023-02-15T08:29:09;24.83;;;20.20;;
579;SDS011;276;48.392;9.950;2023-02-15T08:31:38;20.07;;;17.33;;
579;SDS011;276;48.392;9.950;2023-02-15T08:34:07;25.33;;;20.70;;
579;SDS011;276;48.392;9.950;2023-02-15T08:36:36;22.70;;;20.13;;
579;SDS011;276;48.392;9.950;2023-02-15T08:39:02;24.03;;;21.47;;
579;SDS011;276;48.392;9.950;2023-02-15T08:41:32;29.67;;;21.97;;
579;SDS011;276;48.392;9.950;2023-02-15T08:44:01;26.27;;;21.50;;
579;SDS011;276;48.392;9.950;2023-02-15T08:46:32;22.00;;;17.97;;
579;SDS011;276;48.392;9.950;2023-02-15T08:49:00;21.73;;;18.43;;
579;SDS011;276;48.392;9.950;2023-02-15T08:51:31;22.13;;;19.93;;
579;SDS011;276;48.392;9.950;2023-02-15T08:53:59;23.10;;;20.30;;
579;SDS011;276;48.392;9.950;2023-02-15T08:56:28;25.17;;;20.60;;
579;SDS011;276;48.392;9.950;2023-02-15T08:58:56;24.17;;;21.57;;
579;SDS011;276;48.392;9.950;2023-02-15T09:01:25;30.90;;;21.77;;
579;SDS011;276;48.392;9.950;2023-02-15T09:04:06;27.77;;;23.00;;
579;SDS011;276;48.392;9.950;2023-02-15T09:06:36;30.43;;;24.90;;
579;SDS011;276;48.392;9.950;2023-02-15T09:09:02;31.40;;;24.90;;
579;SDS011;276;48.392;9.950;2023-02-15T09:11:36;29.03;;;23.40;;
579;SDS011;276;48.392;9.950;2023-02-15T09:14:07;25.77;;;21.63;;
579;SDS011;276;48.392;9.950;2023-02-15T09:16:35;26.33;;;21.87;;
579;SDS011;276;48.392;9.950;2023-02-15T09:19:02;26.60;;;20.57;;
579;SDS011;276;48.392;9.950;2023-02-15T09:21:30;22.00;;;19.53;;
579;SDS011;276;48.392;9.950;2023-02-15T09:24:01;25.43;;;20.87;;
579;SDS011;276;48.392;9.950;2023-02-15T09:26:30;27.70;;;20.73;;
579;SDS011;276;48.392;9.950;2023-02-15T09:28:58;26.63;;;21.57;;
579;SDS011;276;48.392;9.950;2023-02-15T09:31:29;24.73;;;19.33;;
579;SDS011;276;48.392;9.950;2023-02-15T09:33:58;21.83;;;19.43;;
579;SDS011;276;48.392;9.950;2023-02-15T09:36:28;21.67;;;19.33;;
579;SDS011;276;48.392;9.950;2023-02-15T09:39:10;26.20;;;19.83;;
579;SDS011;276;48.392;9.950;2023-02-15T09:41:47;25.63;;;20.40;;
579;SDS011;276;48.392;9.950;2023-02-15T09:50:23;29.90;;;23.37;;
579;SDS011;276;48.392;9.950;2023-02-15T09:58:34;25.53;;;21.77;;
579;SDS011;276;48.392;9.950;2023-02-15T10:18:25;25.33;;;19.90;;
579;SDS011;276;48.392;9.950;2023-02-15T10:26:20;23.87;;;20.70;;
579;SDS011;276;48.392;9.950;2023-02-15T10:58:31;26.83;;;20.97;;
579;SDS011;276;48.392;9.950;2023-02-15T11:04:33;26.30;;;20.10;;
579;SDS011;276;48.392;9.950;2023-02-15T11:06:46;25.97;;;21.43;;
579;SDS011;276;48.392;9.950;2023-02-15T11:09:16;22.37;;;19.50;;
579;SDS011;276;48.392;9.950;2023-02-15T11:11:47;20.53;;;18.37;;
579;SDS011;276;48.392;9.950;2023-02-15T11:17:02;21.53;;;18.53;;
579;SDS011;276;48.392;9.950;2023-02-15T11:19:54;21.67;;;19.53;;
579;SDS011;276;48.392;9.950;2023-02-15T11:22:34;21.57;;;18.77;;
579;SDS011;276;48.392;9.950;2023-02-15T11:25:05;21.77;;;19.53;;
579;SDS011;276;48.392;9.950;2023-02-15T11:27:43;24.90;;;20.30;;
579;SDS011;276;48.392;9.950;2023-02-15T11:30:14;21.30;;;18.90;;
579;SDS011;276;48.392;9.950;2023-02-15T11:32:53;22.60;;;20.23;;
579;SDS011;276;48.392;9.950;2023-02-15T11:35:27;25.67;;;21.00;;
579;SDS011;276;48.392;9.950;2023-02-15T11:38:06;25.17;;;22.43;;
579;SDS011;276;48.392;9.950;2023-02-15T11:40:48;23.23;;;20.50;;
579;SDS011;276;48.392;9.950;2023-02-15T11:43:26;23.87;;;21.37;;
579;SDS011;276;48.392;9.950;2023-02-15T11:45:58;24.33;;;21.80;;
579;SDS011;276;48.392;9.950;2023-02-15T11:48:26;24.93;;;22.17;;
579;SDS011;276;48.392;9.950;2023-02-15T11:50:59;25.80;;;22.60;;
579;SDS011;276;48.392;9.950;2023-02-15T11:53:31;25.97;;;23.20;;
579;SDS011;276;48.392;9.950;2023-02-15T11:55:59;28.20;;;24.47;;
579;SDS011;276;48.392;9.950;2023-02-15T12:01:10;27.20;;;21.50;;
579;SDS011;276;48.392;9.950;2023-02-15T12:03:53;26.33;;;23.10;;
579;SDS011;276;48.392;9.950;2023-02-15T12:06:30;23.17;;;20.83;;
579;SDS011;276;48.392;9.950;2023-02-15T12:11:37;25.90;;;23.07;;
579;SDS011;276;48.392;9.950;2023-02-15T12:14:07;23.97;;;21.57;;
579;SDS011;276;48.392;9.950;2023-02-15T12:16:40;25.77;;;23.10;;
579;SDS011;276;48.392;9.950;2023-02-15T12:19:27;26.03;;;23.33;;
579;SDS011;276;48.392;9.950;2023-02-15T12:21:56;24.63;;;22.20;;
579;SDS011;276;48.392;9.950;2023-02-15T12:29:42;27.47;;;24.60;;
579;SDS011;276;48.392;9.950;2023-02-15T12:32:27;28.50;;;25.60;;
579;SDS011;276;48.392;9.950;2023-02-15T12:35:02;28.27;;;25.67;;
579;SDS011;276;48.392;9.950;2023-02-15T12:37:38;28.40;;;25.40;;
579;SDS011;276;48.392;9.950;2023-02-15T12:40:20;28.97;;;26.27;;
579;SDS011;276;48.392;9.950;2023-02-15T12:42:52;28.83;;;25.87;;
579;SDS011;276;48.392;9.950;2023-02-15T12:45:26;30.03;;;26.83;;
579;SDS011;276;48.392;9.950;2023-02-15T12:48:07;29.60;;;26.70;;
579;SDS011;276;48.392;9.950;2023-02-15T12:50:36;32.77;;;29.27;;
579;SDS011;276;48.392;9.950;2023-02-15T12:53:13;30.63;;;27.63;;
579;SDS011;276;48.392;9.950;2023-02-15T12:58:41;30.10;;;27.00;;
579;SDS011;276;48.392;9.950;2023-02-15T13:01:19;30.00;;;27.10;;
579;SDS011;276;48.392;9.950;2023-02-15T13:03:54;27.93;;;25.00;;
579;SDS011;276;48.392;9.950;2023-02-15T13:06:27;30.00;;;26.87;;
579;SDS011;276;48.392;9.950;2023-02-15T13:08:57;32.43;;;29.27;;
579;SDS011;276;48.392;9.950;2023-02-15T13:11:33;32.53;;;29.23;;
579;SDS011;276;48.392;9.950;2023-02-15T13:14:15;28.80;;;26.10;;
579;SDS011;276;48.392;9.950;2023-02-15T13:16:41;30.20;;;27.30;;
579;SDS011;276;48.392;9.950;2023-02-15T13:19:18;29.50;;;26.70;;
579;SDS011;276;48.392;9.950;2023-02-15T13:21:52;30.97;;;27.87;;
579;SDS011;276;48.392;9.950;2023-02-15T13:24:44;30.00;;;27.00;;
579;SDS011;276;48.392;9.950;2023-02-15T13:27:16;30.20;;;27.20;;
579;SDS011;276;48.392;9.950;2023-02-15T13:29:50;28.27;;;25.60;;
579;SDS011;276;48.392;9.950;2023-02-15T13:32:28;31.87;;;28.53;;
579;SDS011;276;48.392;9.950;2023-02-15T13:35:02;32.47;;;29.17;;
579;SDS011;276;48.392;9.950;2023-02-15T13:51:16;30.13;;;27.30;;
579;SDS011;276;48.392;9.950;2023-02-15T13:56:53;30.93;;;27.47;;
579;SDS011;276;48.392;9.950;2023-02-15T14:08:38;26.57;;;24.10;;
579;SDS011;276;48.392;9.950;2023-02-15T14:14:11;31.07;;;27.97;;
579;SDS011;276;48.392;9.950;2023-02-15T14:19:35;29.57;;;26.50;;
579;SDS011;276;48.392;9.950;2023-02-15T14:30:39;28.17;;;25.13;;
579;SDS011;276;48.392;9.950;2023-02-15T14:35:42;23.93;;;21.50;;
579;SDS011;276;48.392;9.950;2023-02-15T14:41:02;27.67;;;24.10;;
579;SDS011;276;48.392;9.950;2023-02-15T14:46:25;27.90;;;25.10;;
579;SDS011;276;48.392;9.950;2023-02-15T14:49:23;26.77;;;23.90;;
579;SDS011;276;48.392;9.950;2023-02-15T14:51:54;28.53;;;25.60;;
579;SDS011;276;48.392;9.950;2023-02-15T14:59:26;32.77;;;29.27;;
579;SDS011;276;48.392;9.950;2023-02-15T15:04:34;30.87;;;27.60;;
579;SDS011;276;48.392;9.950;2023-02-15T15:10:03;31.53;;;26.37;;
579;SDS011;276;48.392;9.950;2023-02-15T15:17:56;29.10;;;26.20;;
579;SDS011;276;48.392;9.950;2023-02-15T15:23:33;29.70;;;26.70;;
579;SDS011;276;48.392;9.950;2023-02-15T15:42:00;27.57;;;24.70;;
579;SDS011;276;48.392;9.950;2023-02-15T15:50:21;28.30;;;25.07;;
579;SDS011;276;48.392;9.950;2023-02-15T15:52:50;28.43;;;25.57;;
579;SDS011;276;48.392;9.950;2023-02-15T15:55:25;27.00;;;24.30;;
579;SDS011;276;48.392;9.950;2023-02-15T15:57:58;31.27;;;28.07;;
579;SDS011;276;48.392;9.950;2023-02-15T16:03:16;27.70;;;24.70;;
579;SDS011;276;48.392;9.950;2023-02-15T16:05:47;30.87;;;27.60;;
579;SDS011;276;48.392;9.950;2023-02-15T16:08:27;29.17;;;26.07;;
579;SDS011;276;48.392;9.950;2023-02-15T16:11:19;27.80;;;25.00;;
579;SDS011;276;48.392;9.950;2023-02-15T16:13:51;30.67;;;27.43;;
579;SDS011;276;48.392;9.950;2023-02-15T16:16:27;29.37;;;26.47;;
579;SDS011;276;48.392;9.950;2023-02-15T16:18:56;28.33;;;25.50;;
579;SDS011;276;48.392;9.950;2023-02-15T16:21:29;26.00;;;23.30;;
579;SDS011;276;48.392;9.950;2023-02-15T16:29:39;27.47;;;24.67;;
579;SDS011;276;48.392;9.950;2023-02-15T16:32:26;26.63;;;23.90;;
579;SDS011;276;48.392;9.950;2023-02-15T16:37:22;26.83;;;24.17;;
579;SDS011;276;48.392;9.950;2023-02-15T16:39:53;27.53;;;24.80;;
579;SDS011;276;48.392;9.950;2023-02-15T16:42:22;27.00;;;24.30;;
579;SDS011;276;48.392;9.950;2023-02-15T16:45:02;26.50;;;23.77;;
579;SDS011;276;48.392;9.950;2023-02-15T16:47:39;27.60;;;24.30;;
579;SDS011;276;48.392;9.950;2023-02-15T16:53:14;28.97;;;25.87;;
579;SDS011;276;48.392;9.950;2023-02-15T16:55:50;27.80;;;24.70;;
579;SDS011;276;48.392;9.950;2023-02-15T16:58:31;28.00;;;24.20;;
579;SDS011;276;48.392;9.950;2023-02-15T17:01:07;27.20;;;23.90;;
579;SDS011;276;48.392;9.950;2023-02-15T17:03:36;29.40;;;24.93;;
579;SDS011;276;48.392;9.950;2023-02-15T17:06:02;27.57;;;24.70;;
579;SDS011;276;48.392;9.950;2023-02-15T17:08:48;28.30;;;24.00;;
579;SDS011;276;48.392;9.950;2023-02-15T17:11:17;27.07;;;24.27;;
579;SDS011;276;48.392;9.950;2023-02-15T17:14:30;26.23;;;23.63;;
579;SDS011;276;48.392;9.950;2023-02-15T17:16:32;27.90;;;23.90;;
579;SDS011;276;48.392;9.950;2023-02-15T17:19:14;28.77;;;25.17;;
579;SDS011;276;48.392;9.950;2023-02-15T17:22:03;25.33;;;22.70;;
579;SDS011;276;48.392;9.950;2023-02-15T17:24:35;25.17;;;22.63;;
579;SDS011;276;48.392;9.950;2023-02-15T17:27:05;27.20;;;24.30;;
579;SDS011;276;48.392;9.950;2023-02-15T17:29:43;27.03;;;24.23;;
579;SDS011;276;48.392;9.950;2023-02-15T17:32:21;28.23;;;25.30;;
579;SDS011;276;48.392;9.950;2023-02-15T17:37:48;26.73;;;24.00;;
579;SDS011;276;48.392;9.950;2023-02-15T17:40:24;28.83;;;25.73;;
579;SDS011;276;48.392;9.950;2023-02-15T17:42:52;27.40;;;24.73;;
579;SDS011;276;48.392;9.950;2023-02-15T17:45:19;30.93;;;27.43;;
579;SDS011;276;48.392;9.950;2023-02-15T17:47:46;28.17;;;25.13;;
579;SDS011;276;48.392;9.950;2023-02-15T17:50:17;29.83;;;26.27;;
579;SDS011;276;48.392;9.950;2023-02-15T17:52:45;27.93;;;25.07;;
579;SDS011;276;48.392;9.950;2023-02-15T17:55:13;26.07;;;23.37;;
579;SDS011;276;48.392;9.950;2023-02-15T17:57:59;27.80;;;24.80;;
579;SDS011;276;48.392;9.950;2023-02-15T18:00:28;28.90;;;24.53;;
579;SDS011;276;48.392;9.950;2023-02-15T18:03:13;28.53;;;25.37;;
579;SDS011;276;48.392;9.950;2023-02-15T18:06:00;27.33;;;24.37;;
579;SDS011;276;48.392;9.950;2023-02-15T18:08:44;26.60;;;23.97;;
579;SDS011;276;48.392;9.950;2023-02-15T18:11:31;28.47;;;25.50;;
579;SDS011;276;48.392;9.950;2023-02-15T18:14:05;26.30;;;23.60;;
579;SDS011;276;48.392;9.950;2023-02-15T18:16:33;26.83;;;24.03;;
579;SDS011;276;48.392;9.950;2023-02-15T18:19:01;29.93;;;26.70;;
579;SDS011;276;48.392;9.950;2023-02-15T18:21:36;28.80;;;25.90;;
579;SDS011;276;48.392;9.950;2023-02-15T18:24:04;30.80;;;26.60;;
579;SDS011;276;48.392;9.950;2023-02-15T18:26:37;27.97;;;25.07;;
579;SDS011;276;48.392;9.950;2023-02-15T18:29:05;29.77;;;26.53;;
579;SDS011;276;48.392;9.950;2023-02-15T18:31:31;26.63;;;23.93;;
579;SDS011;276;48.392;9.950;2023-02-15T18:33:59;28.37;;;25.47;;
579;SDS011;276;48.392;9.950;2023-02-15T18:36:31;27.50;;;24.43;;
579;SDS011;276;48.392;9.950;2023-02-15T18:42:20;27.87;;;24.97;;
579;SDS011;276;48.392;9.950;2023-02-15T18:44:52;29.77;;;26.57;;
579;SDS011;276;48.392;9.950;2023-02-15T18:47:23;25.47;;;22.80;;
579;SDS011;276;48.392;9.950;2023-02-15T18:49:51;27.70;;;24.33;;
579;SDS011;276;48.392;9.950;2023-02-15T18:52:20;27.73;;;25.00;;
579;SDS011;276;48.392;9.950;2023-02-15T18:54:52;27.80;;;24.33;;
579;SDS011;276;48.392;9.950;2023-02-15T18:57:20;26.63;;;23.80;;
579;SDS011;276;48.392;9.950;2023-02-15T18:59:48;31.27;;;26.77;;
579;SDS011;276;48.392;9.950;2023-02-15T19:02:17;29.70;;;26.40;;
579;SDS011;276;48.392;9.950;2023-02-15T19:04:43;30.17;;;27.00;;
579;SDS011;276;48.392;9.950;2023-02-15T19:07:18;27.70;;;24.37;;
579;SDS011;276;48.392;9.950;2023-02-15T19:09:50;28.60;;;25.50;;
579;SDS011;276;48.392;9.950;2023-02-15T19:12:18;32.63;;;26.00;;
579;SDS011;276;48.392;9.950;2023-02-15T19:14:44;28.37;;;24.70;;
579;SDS011;276;48.392;9.950;2023-02-15T19:17:14;30.37;;;27.07;;
579;SDS011;276;48.392;9.950;2023-02-15T19:19:42;30.40;;;27.10;;
579;SDS011;276;48.392;9.950;2023-02-15T19:22:27;31.13;;;26.47;;
579;SDS011;276;48.392;9.950;2023-02-15T19:24:57;28.37;;;25.50;;
579;SDS011;276;48.392;9.950;2023-02-15T19:27:26;31.50;;;26.13;;
579;SDS011;276;48.392;9.950;2023-02-15T19:29:56;30.50;;;27.23;;
579;SDS011;276;48.392;9.950;2023-02-15T19:32:26;33.43;;;25.50;;
579;SDS011;276;48.392;9.950;2023-02-15T19:34:54;34.57;;;26.80;;
579;SDS011;276;48.392;9.950;2023-02-15T19:37:22;29.70;;;25.90;;
579;SDS011;276;48.392;9.950;2023-02-15T19:39:51;33.80;;;28.43;;
579;SDS011;276;48.392;9.950;2023-02-15T19:42:19;30.90;;;25.73;;